sensor_id;sensor_type;location;lat;lon;timestamp;P1;durP1;ratioP1;P2;durP2;ratioP2
36751;SDS011;22718;49.494;7.036;2022-09-21T00:04:00;5.07;;;0.90;;
36751;SDS011;22718;49.494;7.036;2022-09-21T00:06:31;3.65;;;0.65;;
36751;SDS011;22718;49.494;7.036;2022-09-21T00:08:58;5.85;;;0.98;;
36751;SDS011;22718;49.494;7.036;2022-09-21T00:11:24;4.43;;;1.20;;
36751;SDS011;22718;49.494;7.036;2022-09-21T00:13:53;4.35;;;0.60;;
36751;SDS011;22718;49.494;7.036;2022-09-21T00:16:21;5.72;;;0.70;;
36751;SDS011;22718;49.494;7.036;2022-09-21T00:18:46;2.97;;;0.75;;
36751;SDS011;22718;49.494;7.036;2022-09-21T00:21:13;4.80;;;0.70;;
36751;SDS011;22718;49.494;7.036;2022-09-21T00:23:40;4.68;;;0.70;;
36751;SDS011;22718;49.494;7.036;2022-09-21T00:28:39;3.47;;;0.90;;
36751;SDS011;22718;49.494;7.036;2022-09-21T00:31:09;6.68;;;0.90;;
36751;SDS011;22718;49.494;7.036;2022-09-21T00:33:38;5.90;;;1.23;;
36751;SDS011;22718;49.494;7.036;2022-09-21T00:36:06;12.55;;;1.25;;
36751;SDS011;22718;49.494;7.036;2022-09-21T00:38:36;3.65;;;0.93;;
36751;SDS011;22718;49.494;7.036;2022-09-21T00:41:03;5.50;;;0.95;;
36751;SDS011;22718;49.494;7.036;2022-09-21T00:43:32;3.88;;;1.10;;
36751;SDS011;22718;49.494;7.036;2022-09-21T00:46:00;7.50;;;1.50;;
36751;SDS011;22718;49.494;7.036;2022-09-21T00:48:35;4.00;;;1.33;;
36751;SDS011;22718;49.494;7.036;2022-09-21T00:51:02;7.38;;;1.20;;
36751;SDS011;22718;49.494;7.036;2022-09-21T00:53:33;9.32;;;1.67;;
36751;SDS011;22718;49.494;7.036;2022-09-21T00:56:00;5.05;;;1.17;;
36751;SDS011;22718;49.494;7.036;2022-09-21T00:58:29;6.35;;;1.38;;
36751;SDS011;22718;49.494;7.036;2022-09-21T01:00:57;6.43;;;1.55;;
36751;SDS011;22718;49.494;7.036;2022-09-21T01:03:25;5.95;;;1.00;;
36751;SDS011;22718;49.494;7.036;2022-09-21T01:05:53;5.40;;;1.10;;
36751;SDS011;22718;49.494;7.036;2022-09-21T01:08:23;4.35;;;1.17;;
36751;SDS011;22718;49.494;7.036;2022-09-21T01:15:59;6.20;;;0.98;;
36751;SDS011;22718;49.494;7.036;2022-09-21T01:18:43;5.72;;;1.20;;
36751;SDS011;22718;49.494;7.036;2022-09-21T01:21:25;5.28;;;1.00;;
36751;SDS011;22718;49.494;7.036;2022-09-21T01:24:04;5.72;;;1.45;;
36751;SDS011;22718;49.494;7.036;2022-09-21T01:29:42;5.93;;;1.20;;
36751;SDS011;22718;49.494;7.036;2022-09-21T01:35:08;6.60;;;1.27;;
36751;SDS011;22718;49.494;7.036;2022-09-21T01:37:43;7.55;;;1.10;;
36751;SDS011;22718;49.494;7.036;2022-09-21T01:40:20;9.43;;;0.90;;
36751;SDS011;22718;49.494;7.036;2022-09-21T01:42:55;3.28;;;1.13;;
36751;SDS011;22718;49.494;7.036;2022-09-21T01:45:30;5.18;;;0.90;;
36751;SDS011;22718;49.494;7.036;2022-09-21T01:48:08;5.18;;;1.50;;
36751;SDS011;22718;49.494;7.036;2022-09-21T01:50:40;7.00;;;1.35;;
36751;SDS011;22718;49.494;7.036;2022-09-21T01:53:43;7.28;;;1.85;;
36751;SDS011;22718;49.494;7.036;2022-09-21T01:56:05;5.43;;;1.70;;
36751;SDS011;22718;49.494;7.036;2022-09-21T02:01:03;7.32;;;1.80;;
36751;SDS011;22718;49.494;7.036;2022-09-21T02:06:08;6.40;;;1.85;;
36751;SDS011;22718;49.494;7.036;2022-09-21T02:08:35;4.10;;;1.65;;
36751;SDS011;22718;49.494;7.036;2022-09-21T02:11:03;3.88;;;1.80;;
36751;SDS011;22718;49.494;7.036;2022-09-21T02:13:34;8.70;;;2.00;;
36751;SDS011;22718;49.494;7.036;2022-09-21T02:21:30;8.52;;;2.08;;
36751;SDS011;22718;49.494;7.036;2022-09-21T02:27:45;4.25;;;1.40;;
36751;SDS011;22718;49.494;7.036;2022-09-21T02:30:19;6.50;;;1.85;;
36751;SDS011;22718;49.494;7.036;2022-09-21T02:32:48;5.03;;;1.83;;
36751;SDS011;22718;49.494;7.036;2022-09-21T02:35:55;6.28;;;2.33;;
36751;SDS011;22718;49.494;7.036;2022-09-21T02:38:39;7.80;;;2.20;;
36751;SDS011;22718;49.494;7.036;2022-09-21T02:41:15;4.78;;;2.65;;
36751;SDS011;22718;49.494;7.036;2022-09-21T02:44:12;6.25;;;2.25;;
36751;SDS011;22718;49.494;7.036;2022-09-21T02:49:18;5.63;;;2.40;;
36751;SDS011;22718;49.494;7.036;2022-09-21T02:51:52;5.95;;;1.83;;
36751;SDS011;22718;49.494;7.036;2022-09-21T02:54:23;9.45;;;2.22;;
36751;SDS011;22718;49.494;7.036;2022-09-21T02:56:53;7.28;;;2.58;;
36751;SDS011;22718;49.494;7.036;2022-09-21T02:59:20;5.57;;;2.10;;
36751;SDS011;22718;49.494;7.036;2022-09-21T03:01:47;9.20;;;2.50;;
36751;SDS011;22718;49.494;7.036;2022-09-21T03:04:13;8.40;;;2.17;;
36751;SDS011;22718;49.494;7.036;2022-09-21T03:06:40;11.30;;;2.42;;
36751;SDS011;22718;49.494;7.036;2022-09-21T03:09:06;9.70;;;3.15;;
36751;SDS011;22718;49.494;7.036;2022-09-21T03:11:32;8.00;;;2.65;;
36751;SDS011;22718;49.494;7.036;2022-09-21T03:14:00;6.55;;;2.60;;
36751;SDS011;22718;49.494;7.036;2022-09-21T03:16:29;7.80;;;2.70;;
36751;SDS011;22718;49.494;7.036;2022-09-21T03:18:55;6.18;;;2.42;;
36751;SDS011;22718;49.494;7.036;2022-09-21T03:21:20;8.55;;;2.47;;
36751;SDS011;22718;49.494;7.036;2022-09-21T03:23:46;4.88;;;2.30;;
36751;SDS011;22718;49.494;7.036;2022-09-21T03:26:12;9.02;;;2.85;;
36751;SDS011;22718;49.494;7.036;2022-09-21T03:28:40;9.90;;;3.78;;
36751;SDS011;22718;49.494;7.036;2022-09-21T03:31:08;11.48;;;2.60;;
36751;SDS011;22718;49.494;7.036;2022-09-21T03:33:34;6.82;;;3.35;;
36751;SDS011;22718;49.494;7.036;2022-09-21T03:35:59;6.72;;;3.60;;
36751;SDS011;22718;49.494;7.036;2022-09-21T03:38:25;6.18;;;2.47;;
36751;SDS011;22718;49.494;7.036;2022-09-21T03:40:51;6.72;;;3.35;;
36751;SDS011;22718;49.494;7.036;2022-09-21T03:43:18;7.97;;;2.75;;
36751;SDS011;22718;49.494;7.036;2022-09-21T03:45:44;7.22;;;2.55;;
36751;SDS011;22718;49.494;7.036;2022-09-21T03:48:12;6.22;;;2.97;;
36751;SDS011;22718;49.494;7.036;2022-09-21T03:50:42;14.18;;;3.72;;
36751;SDS011;22718;49.494;7.036;2022-09-21T03:53:08;9.10;;;3.15;;
36751;SDS011;22718;49.494;7.036;2022-09-21T03:55:35;7.20;;;2.10;;
36751;SDS011;22718;49.494;7.036;2022-09-21T03:58:00;6.90;;;2.22;;
36751;SDS011;22718;49.494;7.036;2022-09-21T04:00:26;8.25;;;2.67;;
36751;SDS011;22718;49.494;7.036;2022-09-21T04:02:52;14.93;;;2.80;;
36751;SDS011;22718;49.494;7.036;2022-09-21T04:05:21;8.10;;;2.58;;
36751;SDS011;22718;49.494;7.036;2022-09-21T04:07:47;6.47;;;2.97;;
36751;SDS011;22718;49.494;7.036;2022-09-21T04:10:14;7.30;;;2.33;;
36751;SDS011;22718;49.494;7.036;2022-09-21T04:12:43;5.10;;;2.78;;
36751;SDS011;22718;49.494;7.036;2022-09-21T04:15:13;9.15;;;3.13;;
36751;SDS011;22718;49.494;7.036;2022-09-21T04:17:40;8.50;;;4.00;;
36751;SDS011;22718;49.494;7.036;2022-09-21T04:20:06;8.57;;;3.55;;
36751;SDS011;22718;49.494;7.036;2022-09-21T04:22:33;9.32;;;4.63;;
36751;SDS011;22718;49.494;7.036;2022-09-21T04:25:00;7.68;;;4.03;;
36751;SDS011;22718;49.494;7.036;2022-09-21T04:27:32;15.93;;;4.63;;
36751;SDS011;22718;49.494;7.036;2022-09-21T04:29:58;10.27;;;4.78;;
36751;SDS011;22718;49.494;7.036;2022-09-21T04:45:13;8.00;;;4.15;;
36751;SDS011;22718;49.494;7.036;2022-09-21T04:47:39;13.18;;;3.83;;
36751;SDS011;22718;49.494;7.036;2022-09-21T04:50:05;7.45;;;3.60;;
36751;SDS011;22718;49.494;7.036;2022-09-21T04:52:33;7.43;;;3.20;;
36751;SDS011;22718;49.494;7.036;2022-09-21T04:55:00;9.50;;;3.65;;
36751;SDS011;22718;49.494;7.036;2022-09-21T04:57:25;7.60;;;3.35;;
36751;SDS011;22718;49.494;7.036;2022-09-21T04:59:51;10.05;;;4.10;;
36751;SDS011;22718;49.494;7.036;2022-09-21T05:02:17;12.07;;;3.92;;
36751;SDS011;22718;49.494;7.036;2022-09-21T05:04:42;6.72;;;3.75;;
36751;SDS011;22718;49.494;7.036;2022-09-21T05:07:08;8.90;;;4.97;;
36751;SDS011;22718;49.494;7.036;2022-09-21T05:09:34;7.35;;;3.88;;
36751;SDS011;22718;49.494;7.036;2022-09-21T05:12:18;12.77;;;4.25;;
36751;SDS011;22718;49.494;7.036;2022-09-21T05:14:43;11.30;;;4.60;;
36751;SDS011;22718;49.494;7.036;2022-09-21T05:17:10;11.60;;;4.30;;
36751;SDS011;22718;49.494;7.036;2022-09-21T05:19:39;11.13;;;4.40;;
36751;SDS011;22718;49.494;7.036;2022-09-21T05:22:05;13.57;;;4.22;;
36751;SDS011;22718;49.494;7.036;2022-09-21T05:24:31;11.57;;;5.25;;
36751;SDS011;22718;49.494;7.036;2022-09-21T05:26:57;9.25;;;4.80;;
36751;SDS011;22718;49.494;7.036;2022-09-21T05:29:22;10.25;;;3.75;;
36751;SDS011;22718;49.494;7.036;2022-09-21T05:31:56;11.40;;;5.38;;
36751;SDS011;22718;49.494;7.036;2022-09-21T05:34:29;9.52;;;4.75;;
36751;SDS011;22718;49.494;7.036;2022-09-21T05:37:05;10.35;;;4.18;;
36751;SDS011;22718;49.494;7.036;2022-09-21T05:39:38;14.07;;;4.20;;
36751;SDS011;22718;49.494;7.036;2022-09-21T05:42:08;8.25;;;4.20;;
36751;SDS011;22718;49.494;7.036;2022-09-21T05:44:34;11.10;;;3.88;;
36751;SDS011;22718;49.494;7.036;2022-09-21T05:47:03;9.10;;;4.38;;
36751;SDS011;22718;49.494;7.036;2022-09-21T05:54:58;7.63;;;4.82;;
36751;SDS011;22718;49.494;7.036;2022-09-21T06:00:25;8.20;;;5.03;;
36751;SDS011;22718;49.494;7.036;2022-09-21T06:05:53;9.30;;;4.38;;
36751;SDS011;22718;49.494;7.036;2022-09-21T06:08:19;12.07;;;4.50;;
36751;SDS011;22718;49.494;7.036;2022-09-21T06:10:46;8.75;;;3.88;;
36751;SDS011;22718;49.494;7.036;2022-09-21T06:13:12;9.70;;;4.15;;
36751;SDS011;22718;49.494;7.036;2022-09-21T06:15:38;7.95;;;3.83;;
36751;SDS011;22718;49.494;7.036;2022-09-21T06:18:07;9.60;;;3.55;;
36751;SDS011;22718;49.494;7.036;2022-09-21T06:20:34;10.68;;;4.53;;
36751;SDS011;22718;49.494;7.036;2022-09-21T06:23:03;8.35;;;4.18;;
36751;SDS011;22718;49.494;7.036;2022-09-21T06:25:31;10.82;;;4.00;;
36751;SDS011;22718;49.494;7.036;2022-09-21T06:28:01;6.50;;;3.33;;
36751;SDS011;22718;49.494;7.036;2022-09-21T06:30:31;7.75;;;4.50;;
36751;SDS011;22718;49.494;7.036;2022-09-21T06:32:59;6.90;;;3.30;;
36751;SDS011;22718;49.494;7.036;2022-09-21T06:35:26;10.35;;;3.75;;
36751;SDS011;22718;49.494;7.036;2022-09-21T06:37:56;9.00;;;4.03;;
36751;SDS011;22718;49.494;7.036;2022-09-21T06:40:22;8.90;;;3.90;;
36751;SDS011;22718;49.494;7.036;2022-09-21T06:42:48;8.93;;;4.43;;
36751;SDS011;22718;49.494;7.036;2022-09-21T06:45:14;10.73;;;4.03;;
36751;SDS011;22718;49.494;7.036;2022-09-21T06:47:45;10.07;;;3.85;;
36751;SDS011;22718;49.494;7.036;2022-09-21T06:50:11;9.60;;;3.70;;
36751;SDS011;22718;49.494;7.036;2022-09-21T06:52:37;6.88;;;2.83;;
36751;SDS011;22718;49.494;7.036;2022-09-21T06:55:05;9.00;;;3.35;;
36751;SDS011;22718;49.494;7.036;2022-09-21T06:57:31;8.25;;;3.22;;
36751;SDS011;22718;49.494;7.036;2022-09-21T06:59:57;7.53;;;2.42;;
36751;SDS011;22718;49.494;7.036;2022-09-21T07:02:23;4.32;;;1.73;;
36751;SDS011;22718;49.494;7.036;2022-09-21T07:04:49;5.63;;;2.65;;
36751;SDS011;22718;49.494;7.036;2022-09-21T07:07:14;7.70;;;2.00;;
36751;SDS011;22718;49.494;7.036;2022-09-21T07:09:40;6.18;;;2.53;;
36751;SDS011;22718;49.494;7.036;2022-09-21T07:12:06;4.97;;;2.15;;
36751;SDS011;22718;49.494;7.036;2022-09-21T07:14:32;6.72;;;2.33;;
36751;SDS011;22718;49.494;7.036;2022-09-21T07:16:58;4.28;;;1.63;;
36751;SDS011;22718;49.494;7.036;2022-09-21T07:19:24;9.32;;;2.25;;
36751;SDS011;22718;49.494;7.036;2022-09-21T07:21:53;5.70;;;2.05;;
36751;SDS011;22718;49.494;7.036;2022-09-21T07:24:19;5.88;;;1.50;;
36751;SDS011;22718;49.494;7.036;2022-09-21T07:26:45;7.82;;;1.58;;
36751;SDS011;22718;49.494;7.036;2022-09-21T07:29:11;6.13;;;1.70;;
36751;SDS011;22718;49.494;7.036;2022-09-21T07:31:36;4.45;;;1.50;;
36751;SDS011;22718;49.494;7.036;2022-09-21T07:34:02;6.97;;;1.67;;
36751;SDS011;22718;49.494;7.036;2022-09-21T07:36:28;5.97;;;1.80;;
36751;SDS011;22718;49.494;7.036;2022-09-21T07:38:55;7.63;;;1.63;;
36751;SDS011;22718;49.494;7.036;2022-09-21T07:44:20;7.60;;;1.83;;
36751;SDS011;22718;49.494;7.036;2022-09-21T07:46:50;5.43;;;1.50;;
36751;SDS011;22718;49.494;7.036;2022-09-21T07:49:31;7.95;;;1.50;;
36751;SDS011;22718;49.494;7.036;2022-09-21T07:51:57;7.07;;;1.50;;
36751;SDS011;22718;49.494;7.036;2022-09-21T07:54:23;7.57;;;1.48;;
36751;SDS011;22718;49.494;7.036;2022-09-21T07:56:49;4.65;;;1.02;;
36751;SDS011;22718;49.494;7.036;2022-09-21T07:59:35;4.88;;;1.58;;
36751;SDS011;22718;49.494;7.036;2022-09-21T08:02:01;5.85;;;1.13;;
36751;SDS011;22718;49.494;7.036;2022-09-21T08:04:26;5.72;;;1.55;;
36751;SDS011;22718;49.494;7.036;2022-09-21T08:06:52;15.45;;;1.70;;
36751;SDS011;22718;49.494;7.036;2022-09-21T08:09:18;7.35;;;1.40;;
36751;SDS011;22718;49.494;7.036;2022-09-21T08:11:43;8.40;;;1.48;;
36751;SDS011;22718;49.494;7.036;2022-09-21T08:14:11;6.85;;;1.38;;
36751;SDS011;22718;49.494;7.036;2022-09-21T08:16:43;7.32;;;1.55;;
36751;SDS011;22718;49.494;7.036;2022-09-21T08:19:11;4.47;;;1.50;;
36751;SDS011;22718;49.494;7.036;2022-09-21T08:21:37;4.72;;;0.95;;
36751;SDS011;22718;49.494;7.036;2022-09-21T08:24:02;6.57;;;1.08;;
36751;SDS011;22718;49.494;7.036;2022-09-21T08:26:28;7.55;;;0.98;;
36751;SDS011;22718;49.494;7.036;2022-09-21T08:28:54;2.80;;;0.70;;
36751;SDS011;22718;49.494;7.036;2022-09-21T08:31:23;2.95;;;0.73;;
36751;SDS011;22718;49.494;7.036;2022-09-21T08:33:50;5.95;;;1.20;;
36751;SDS011;22718;49.494;7.036;2022-09-21T08:36:17;8.00;;;0.95;;
36751;SDS011;22718;49.494;7.036;2022-09-21T08:38:43;4.50;;;0.68;;
36751;SDS011;22718;49.494;7.036;2022-09-21T08:41:19;4.28;;;0.50;;
36751;SDS011;22718;49.494;7.036;2022-09-21T08:44:10;3.40;;;0.68;;
36751;SDS011;22718;49.494;7.036;2022-09-21T08:46:42;3.33;;;0.60;;
36751;SDS011;22718;49.494;7.036;2022-09-21T08:49:11;2.80;;;0.30;;
36751;SDS011;22718;49.494;7.036;2022-09-21T08:51:53;1.90;;;0.35;;
36751;SDS011;22718;49.494;7.036;2022-09-21T08:54:33;4.75;;;0.50;;
36751;SDS011;22718;49.494;7.036;2022-09-21T08:57:10;2.47;;;0.30;;
36751;SDS011;22718;49.494;7.036;2022-09-21T08:59:40;1.20;;;0.22;;
36751;SDS011;22718;49.494;7.036;2022-09-21T09:05:02;3.47;;;0.30;;
36751;SDS011;22718;49.494;7.036;2022-09-21T09:07:54;3.33;;;0.63;;
36751;SDS011;22718;49.494;7.036;2022-09-21T09:13:13;1.33;;;0.25;;
36751;SDS011;22718;49.494;7.036;2022-09-21T09:21:09;2.10;;;0.40;;
36751;SDS011;22718;49.494;7.036;2022-09-21T09:27:01;2.13;;;0.25;;
36751;SDS011;22718;49.494;7.036;2022-09-21T09:29:52;1.95;;;0.30;;
36751;SDS011;22718;49.494;7.036;2022-09-21T09:32:48;5.72;;;0.20;;
36751;SDS011;22718;49.494;7.036;2022-09-21T09:35:49;1.92;;;0.20;;
36751;SDS011;22718;49.494;7.036;2022-09-21T09:50:24;3.17;;;0.30;;
36751;SDS011;22718;49.494;7.036;2022-09-21T09:52:38;2.88;;;0.20;;
36751;SDS011;22718;49.494;7.036;2022-09-21T09:55:26;1.88;;;0.10;;
36751;SDS011;22718;49.494;7.036;2022-09-21T09:57:54;1.30;;;0.20;;
36751;SDS011;22718;49.494;7.036;2022-09-21T10:00:21;2.47;;;0.10;;
36751;SDS011;22718;49.494;7.036;2022-09-21T10:05:32;0.82;;;0.20;;
36751;SDS011;22718;49.494;7.036;2022-09-21T10:07:59;1.27;;;0.20;;
36751;SDS011;22718;49.494;7.036;2022-09-21T10:10:30;3.17;;;0.20;;
36751;SDS011;22718;49.494;7.036;2022-09-21T10:13:10;2.28;;;0.35;;
36751;SDS011;22718;49.494;7.036;2022-09-21T10:15:58;2.70;;;0.10;;
36751;SDS011;22718;49.494;7.036;2022-09-21T10:19:10;1.67;;;0.13;;
36751;SDS011;22718;49.494;7.036;2022-09-21T10:21:24;2.15;;;0.20;;
36751;SDS011;22718;49.494;7.036;2022-09-21T10:24:02;3.25;;;0.20;;
36751;SDS011;22718;49.494;7.036;2022-09-21T10:26:31;4.30;;;0.20;;
36751;SDS011;22718;49.494;7.036;2022-09-21T10:29:01;2.78;;;0.10;;
36751;SDS011;22718;49.494;7.036;2022-09-21T10:31:54;1.60;;;0.10;;
36751;SDS011;22718;49.494;7.036;2022-09-21T10:34:29;5.00;;;0.20;;
36751;SDS011;22718;49.494;7.036;2022-09-21T10:36:57;6.15;;;0.30;;
36751;SDS011;22718;49.494;7.036;2022-09-21T10:39:25;2.75;;;0.20;;
36751;SDS011;22718;49.494;7.036;2022-09-21T10:42:00;1.23;;;0.13;;
36751;SDS011;22718;49.494;7.036;2022-09-21T10:44:36;2.13;;;0.20;;
36751;SDS011;22718;49.494;7.036;2022-09-21T10:49:49;2.78;;;0.30;;
36751;SDS011;22718;49.494;7.036;2022-09-21T10:52:20;2.33;;;0.45;;
36751;SDS011;22718;49.494;7.036;2022-09-21T10:54:49;1.23;;;0.20;;
36751;SDS011;22718;49.494;7.036;2022-09-21T10:57:19;4.10;;;0.30;;
36751;SDS011;22718;49.494;7.036;2022-09-21T10:59:47;2.87;;;0.20;;
36751;SDS011;22718;49.494;7.036;2022-09-21T11:07:44;1.83;;;0.65;;
36751;SDS011;22718;49.494;7.036;2022-09-21T11:10:15;1.67;;;0.20;;
36751;SDS011;22718;49.494;7.036;2022-09-21T11:26:55;2.08;;;0.52;;
36751;SDS011;22718;49.494;7.036;2022-09-21T11:35:06;5.82;;;0.52;;
36751;SDS011;22718;49.494;7.036;2022-09-21T11:43:44;2.92;;;0.57;;
36751;SDS011;22718;49.494;7.036;2022-09-21T11:49:13;1.00;;;0.15;;
36751;SDS011;22718;49.494;7.036;2022-09-21T12:06:32;0.55;;;0.10;;
36751;SDS011;22718;49.494;7.036;2022-09-21T12:09:14;2.78;;;0.20;;
36751;SDS011;22718;49.494;7.036;2022-09-21T12:12:46;2.25;;;0.10;;
36751;SDS011;22718;49.494;7.036;2022-09-21T12:15:10;0.70;;;0.10;;
36751;SDS011;22718;49.494;7.036;2022-09-21T12:23:07;2.92;;;0.10;;
36751;SDS011;22718;49.494;7.036;2022-09-21T12:25:44;0.60;;;0.10;;
36751;SDS011;22718;49.494;7.036;2022-09-21T12:28:24;0.60;;;0.17;;
36751;SDS011;22718;49.494;7.036;2022-09-21T12:31:14;2.38;;;0.10;;
36751;SDS011;22718;49.494;7.036;2022-09-21T12:33:54;0.73;;;0.10;;
36751;SDS011;22718;49.494;7.036;2022-09-21T12:39:41;1.23;;;0.30;;
36751;SDS011;22718;49.494;7.036;2022-09-21T12:47:54;2.88;;;0.13;;
36751;SDS011;22718;49.494;7.036;2022-09-21T12:50:46;0.52;;;0.20;;
36751;SDS011;22718;49.494;7.036;2022-09-21T12:53:45;1.80;;;0.20;;
36751;SDS011;22718;49.494;7.036;2022-09-21T12:59:05;3.25;;;0.13;;
36751;SDS011;22718;49.494;7.036;2022-09-21T13:10:06;1.25;;;0.10;;
36751;SDS011;22718;49.494;7.036;2022-09-21T13:12:44;2.08;;;0.10;;
36751;SDS011;22718;49.494;7.036;2022-09-21T13:15:13;1.48;;;0.40;;
36751;SDS011;22718;49.494;7.036;2022-09-21T13:17:41;2.45;;;0.10;;
36751;SDS011;22718;49.494;7.036;2022-09-21T13:20:17;4.20;;;0.20;;
36751;SDS011;22718;49.494;7.036;2022-09-21T13:22:46;0.73;;;0.15;;
36751;SDS011;22718;49.494;7.036;2022-09-21T13:44:54;1.50;;;0.10;;
36751;SDS011;22718;49.494;7.036;2022-09-21T13:47:43;0.65;;;0.10;;
36751;SDS011;22718;49.494;7.036;2022-09-21T13:50:24;0.75;;;0.10;;
36751;SDS011;22718;49.494;7.036;2022-09-21T13:52:59;0.40;;;0.10;;
36751;SDS011;22718;49.494;7.036;2022-09-21T13:57:57;2.28;;;0.40;;
36751;SDS011;22718;49.494;7.036;2022-09-21T14:00:36;0.45;;;0.10;;
36751;SDS011;22718;49.494;7.036;2022-09-21T14:03:32;1.38;;;0.20;;
36751;SDS011;22718;49.494;7.036;2022-09-21T14:09:18;0.52;;;0.10;;
36751;SDS011;22718;49.494;7.036;2022-09-21T14:11:57;0.93;;;0.10;;
36751;SDS011;22718;49.494;7.036;2022-09-21T14:14:33;0.88;;;0.10;;
36751;SDS011;22718;49.494;7.036;2022-09-21T14:17:02;3.00;;;0.15;;
36751;SDS011;22718;49.494;7.036;2022-09-21T14:32:29;0.68;;;0.10;;
36751;SDS011;22718;49.494;7.036;2022-09-21T14:35:20;2.08;;;0.20;;
36751;SDS011;22718;49.494;7.036;2022-09-21T14:37:51;0.80;;;0.10;;
36751;SDS011;22718;49.494;7.036;2022-09-21T14:40:22;0.38;;;0.10;;
36751;SDS011;22718;49.494;7.036;2022-09-21T14:42:49;0.80;;;0.20;;
36751;SDS011;22718;49.494;7.036;2022-09-21T14:45:18;1.20;;;0.20;;
36751;SDS011;22718;49.494;7.036;2022-09-21T14:48:28;1.08;;;0.25;;
36751;SDS011;22718;49.494;7.036;2022-09-21T14:51:01;0.88;;;0.10;;
36751;SDS011;22718;49.494;7.036;2022-09-21T14:53:52;3.13;;;0.50;;
36751;SDS011;22718;49.494;7.036;2022-09-21T14:59:21;4.03;;;0.52;;
36751;SDS011;22718;49.494;7.036;2022-09-21T15:10:36;2.17;;;0.50;;
36751;SDS011;22718;49.494;7.036;2022-09-21T15:19:11;4.35;;;0.75;;
36751;SDS011;22718;49.494;7.036;2022-09-21T15:21:41;2.10;;;0.20;;
36751;SDS011;22718;49.494;7.036;2022-09-21T15:24:12;1.10;;;0.15;;
36751;SDS011;22718;49.494;7.036;2022-09-21T15:29:35;2.03;;;0.20;;
36751;SDS011;22718;49.494;7.036;2022-09-21T15:32:01;0.77;;;0.20;;
36751;SDS011;22718;49.494;7.036;2022-09-21T15:34:29;2.10;;;0.52;;
36751;SDS011;22718;49.494;7.036;2022-09-21T15:37:11;0.82;;;0.10;;
36751;SDS011;22718;49.494;7.036;2022-09-21T15:39:41;1.30;;;0.10;;
36751;SDS011;22718;49.494;7.036;2022-09-21T15:42:17;1.92;;;0.35;;
36751;SDS011;22718;49.494;7.036;2022-09-21T15:44:47;0.88;;;0.28;;
36751;SDS011;22718;49.494;7.036;2022-09-21T15:47:16;0.70;;;0.10;;
36751;SDS011;22718;49.494;7.036;2022-09-21T15:49:47;2.30;;;0.28;;
36751;SDS011;22718;49.494;7.036;2022-09-21T15:52:21;1.85;;;0.20;;
36751;SDS011;22718;49.494;7.036;2022-09-21T15:54:54;1.08;;;0.28;;
36751;SDS011;22718;49.494;7.036;2022-09-21T15:57:48;1.40;;;0.17;;
36751;SDS011;22718;49.494;7.036;2022-09-21T16:02:55;2.17;;;0.20;;
36751;SDS011;22718;49.494;7.036;2022-09-21T16:05:28;1.33;;;0.20;;
36751;SDS011;22718;49.494;7.036;2022-09-21T16:10:52;2.45;;;0.30;;
36751;SDS011;22718;49.494;7.036;2022-09-21T16:13:34;1.05;;;0.03;;
36751;SDS011;22718;49.494;7.036;2022-09-21T16:16:18;1.08;;;0.10;;
36751;SDS011;22718;49.494;7.036;2022-09-21T16:21:15;0.63;;;0.10;;
36751;SDS011;22718;49.494;7.036;2022-09-21T16:23:50;1.27;;;0.30;;
36751;SDS011;22718;49.494;7.036;2022-09-21T16:26:20;0.50;;;0.10;;
36751;SDS011;22718;49.494;7.036;2022-09-21T16:29:18;3.03;;;0.65;;
36751;SDS011;22718;49.494;7.036;2022-09-21T16:31:50;0.80;;;0.10;;
36751;SDS011;22718;49.494;7.036;2022-09-21T16:34:38;1.80;;;0.20;;
36751;SDS011;22718;49.494;7.036;2022-09-21T16:39:55;1.58;;;0.10;;
36751;SDS011;22718;49.494;7.036;2022-09-21T16:42:23;1.77;;;0.15;;
36751;SDS011;22718;49.494;7.036;2022-09-21T16:44:52;0.40;;;0.10;;
36751;SDS011;22718;49.494;7.036;2022-09-21T16:47:22;0.30;;;0.10;;
36751;SDS011;22718;49.494;7.036;2022-09-21T16:49:54;0.45;;;0.10;;
36751;SDS011;22718;49.494;7.036;2022-09-21T16:52:24;1.85;;;0.45;;
36751;SDS011;22718;49.494;7.036;2022-09-21T16:54:54;0.85;;;0.10;;
36751;SDS011;22718;49.494;7.036;2022-09-21T16:57:20;0.22;;;0.10;;
36751;SDS011;22718;49.494;7.036;2022-09-21T16:59:47;2.53;;;0.20;;
36751;SDS011;22718;49.494;7.036;2022-09-21T17:02:14;4.57;;;0.10;;
36751;SDS011;22718;49.494;7.036;2022-09-21T17:04:41;0.98;;;0.17;;
36751;SDS011;22718;49.494;7.036;2022-09-21T17:07:09;2.10;;;0.10;;
36751;SDS011;22718;49.494;7.036;2022-09-21T17:09:40;1.42;;;0.13;;
36751;SDS011;22718;49.494;7.036;2022-09-21T17:12:09;1.77;;;0.30;;
36751;SDS011;22718;49.494;7.036;2022-09-21T17:14:36;2.05;;;0.20;;
36751;SDS011;22718;49.494;7.036;2022-09-21T17:17:09;0.80;;;0.10;;
36751;SDS011;22718;49.494;7.036;2022-09-21T17:22:11;2.05;;;0.30;;
36751;SDS011;22718;49.494;7.036;2022-09-21T17:24:45;1.88;;;0.10;;
36751;SDS011;22718;49.494;7.036;2022-09-21T17:27:13;0.32;;;0.20;;
36751;SDS011;22718;49.494;7.036;2022-09-21T17:29:41;1.83;;;0.10;;
36751;SDS011;22718;49.494;7.036;2022-09-21T17:32:12;0.80;;;0.20;;
36751;SDS011;22718;49.494;7.036;2022-09-21T17:34:45;1.20;;;0.20;;
36751;SDS011;22718;49.494;7.036;2022-09-21T17:37:14;1.77;;;0.30;;
36751;SDS011;22718;49.494;7.036;2022-09-21T17:39:39;1.70;;;0.85;;
36751;SDS011;22718;49.494;7.036;2022-09-21T17:42:14;0.55;;;0.10;;
36751;SDS011;22718;49.494;7.036;2022-09-21T17:47:36;2.25;;;0.30;;
36751;SDS011;22718;49.494;7.036;2022-09-21T17:52:41;2.58;;;0.20;;
36751;SDS011;22718;49.494;7.036;2022-09-21T17:55:26;1.88;;;0.30;;
36751;SDS011;22718;49.494;7.036;2022-09-21T18:03:26;3.90;;;0.50;;
36751;SDS011;22718;49.494;7.036;2022-09-21T18:05:53;3.90;;;0.60;;
36751;SDS011;22718;49.494;7.036;2022-09-21T18:08:23;4.78;;;0.55;;
36751;SDS011;22718;49.494;7.036;2022-09-21T18:11:13;2.58;;;0.55;;
36751;SDS011;22718;49.494;7.036;2022-09-21T18:22:32;3.40;;;0.60;;
36751;SDS011;22718;49.494;7.036;2022-09-21T18:25:15;2.33;;;0.40;;
36751;SDS011;22718;49.494;7.036;2022-09-21T18:27:52;3.22;;;0.40;;
36751;SDS011;22718;49.494;7.036;2022-09-21T18:30:24;1.90;;;0.30;;
36751;SDS011;22718;49.494;7.036;2022-09-21T18:49:13;1.77;;;0.50;;
36751;SDS011;22718;49.494;7.036;2022-09-21T18:51:55;2.53;;;0.40;;
36751;SDS011;22718;49.494;7.036;2022-09-21T18:57:01;1.15;;;0.43;;
36751;SDS011;22718;49.494;7.036;2022-09-21T18:59:34;2.83;;;0.30;;
36751;SDS011;22718;49.494;7.036;2022-09-21T19:02:00;2.72;;;0.30;;
36751;SDS011;22718;49.494;7.036;2022-09-21T19:04:25;5.78;;;0.47;;
36751;SDS011;22718;49.494;7.036;2022-09-21T19:07:02;2.60;;;0.30;;
36751;SDS011;22718;49.494;7.036;2022-09-21T19:26:36;1.40;;;0.38;;
36751;SDS011;22718;49.494;7.036;2022-09-21T19:32:14;3.17;;;0.30;;
36751;SDS011;22718;49.494;7.036;2022-09-21T19:34:42;3.80;;;0.63;;
36751;SDS011;22718;49.494;7.036;2022-09-21T19:37:08;1.10;;;0.30;;
36751;SDS011;22718;49.494;7.036;2022-09-21T19:39:36;1.35;;;0.40;;
36751;SDS011;22718;49.494;7.036;2022-09-21T19:42:38;1.17;;;0.30;;
36751;SDS011;22718;49.494;7.036;2022-09-21T19:45:11;1.92;;;0.50;;
36751;SDS011;22718;49.494;7.036;2022-09-21T19:47:56;6.07;;;0.60;;
36751;SDS011;22718;49.494;7.036;2022-09-21T19:53:01;3.00;;;0.40;;
36751;SDS011;22718;49.494;7.036;2022-09-21T19:55:45;1.08;;;0.40;;
36751;SDS011;22718;49.494;7.036;2022-09-21T19:58:31;2.00;;;0.77;;
36751;SDS011;22718;49.494;7.036;2022-09-21T20:01:18;2.28;;;0.60;;
36751;SDS011;22718;49.494;7.036;2022-09-21T20:03:46;1.95;;;0.50;;
36751;SDS011;22718;49.494;7.036;2022-09-21T20:08:54;5.65;;;0.70;;
36751;SDS011;22718;49.494;7.036;2022-09-21T20:14:14;3.72;;;0.60;;
36751;SDS011;22718;49.494;7.036;2022-09-21T20:16:54;3.40;;;1.15;;
36751;SDS011;22718;49.494;7.036;2022-09-21T20:19:41;5.95;;;1.20;;